Time;durP1;ratioP1;P1;durP2;ratioP2;P2;SDS_P1;SDS_P2;PMS_P1;PMS_P2;Temp;Humidity;BMP_temperature;BMP_pressure;BME280_temperature;BME280_humidity;BME280_pressure;Samples;Min_cycle;Max_cycle;Signal;HPM_P1;HPM_P2
2023/12/27 00:03:28;;;;;;;;;;;15.70;62.40;;;;;;10275959;28;94466;-46
2023/12/27 00:08:30;;;;;;;;;;;15.70;62.30;;;;;;10269292;28;93613;-43
2023/12/27 00:13:32;;;;;;;;;;;15.70;61.90;;;;;;10278028;28;93488;-44
2023/12/27 00:18:34;;;;;;;;;;;15.70;61.50;;;;;;10269272;28;94722;-50
2023/12/27 00:23:36;;;;;;;;;;;15.70;61.30;;;;;;10282158;28;93321;-43
2023/12/27 00:28:37;;;;;;;;;;;15.70;61.00;;;;;;10284080;28;94173;-44
2023/12/27 00:33:39;;;;;;;;;;;15.70;60.80;;;;;;10281969;28;93866;-46
2023/12/27 00:38:41;;;;;;;;;;;15.70;60.60;;;;;;10283477;28;95635;-44
2023/12/27 00:43:43;;;;;;;;;;;15.60;60.40;;;;;;10284035;28;94566;-45
2023/12/27 00:48:44;;;;;;;;;;;15.70;60.40;;;;;;10283565;28;94558;-44
2023/12/27 00:53:46;;;;;;;;;;;15.60;60.90;;;;;;10281945;28;96182;-46
2023/12/27 00:58:48;;;;;;;;;;;15.60;61.40;;;;;;10286374;28;92945;-45
2023/12/27 01:03:50;;;;;;;;;;;15.60;61.10;;;;;;10283520;28;93465;-43
2023/12/27 01:08:52;;;;;;;;;;;15.60;60.90;;;;;;10284885;28;94185;-47
2023/12/27 01:13:54;;;;;;;;;;;15.60;60.70;;;;;;10275436;28;94312;-48
2023/12/27 01:18:55;;;;;;;;;;;15.60;60.50;;;;;;10286692;28;94571;-45
2023/12/27 01:23:57;;;;;;;;;;;15.60;60.10;;;;;;10264651;28;94537;-44
2023/12/27 01:28:59;;;;;;;;;;;15.60;60.10;;;;;;10249246;28;96815;-46
2023/12/27 01:34:01;;;;;;;;;;;15.60;59.90;;;;;;10266814;28;93547;-46
2023/12/27 01:39:16;;;;;;;;;;;15.60;59.70;;;;;;10261894;28;94435;-49
2023/12/27 01:44:18;;;;;;;;;;;15.60;59.90;;;;;;10260787;28;94462;-44
2023/12/27 01:49:19;;;;;;;;;;;15.60;60.30;;;;;;10260804;28;93156;-46
2023/12/27 01:54:21;;;;;;;;;;;15.50;60.60;;;;;;10274258;28;94652;-44
2023/12/27 01:59:23;;;;;;;;;;;15.50;60.30;;;;;;10260768;28;94398;-69
2023/12/27 02:04:25;;;;;;;;;;;15.60;60.10;;;;;;10787553;22;95264;-62
2023/12/27 02:09:27;;;;;;;;;;;15.60;59.90;;;;;;10349164;28;93774;-62
2023/12/27 02:14:28;;;;;;;;;;;15.60;59.60;;;;;;10361868;28;93638;-62
2023/12/27 02:19:30;;;;;;;;;;;15.60;59.50;;;;;;10342911;28;95792;-62
2023/12/27 02:24:35;;;;;;;;;;;15.60;59.20;;;;;;10361802;28;93729;-62
2023/12/27 02:29:37;;;;;;;;;;;15.60;59.00;;;;;;10349103;28;94936;-62
2023/12/27 02:34:39;;;;;;;;;;;15.60;58.90;;;;;;10362179;28;93945;-62
2023/12/27 02:39:41;;;;;;;;;;;15.50;59.10;;;;;;10373108;28;93388;-61
2023/12/27 02:44:43;;;;;;;;;;;15.50;59.70;;;;;;10374102;28;94412;-64
2023/12/27 02:49:45;;;;;;;;;;;15.50;60.00;;;;;;10357656;28;94550;-61
2023/12/27 02:54:47;;;;;;;;;;;15.50;59.70;;;;;;10374512;28;93305;-62
2023/12/27 02:59:48;;;;;;;;;;;15.50;59.40;;;;;;10369763;28;92869;-62
2023/12/27 03:04:50;;;;;;;;;;;15.50;59.20;;;;;;10356725;28;93390;-61
2023/12/27 03:09:52;;;;;;;;;;;15.50;59.00;;;;;;10372188;28;95744;-62
2023/12/27 03:14:54;;;;;;;;;;;15.50;58.80;;;;;;10376960;28;93244;-62
2023/12/27 03:19:56;;;;;;;;;;;15.50;58.70;;;;;;10361488;28;94199;-62
2023/12/27 03:24:58;;;;;;;;;;;15.50;58.50;;;;;;10361772;28;93541;-62
2023/12/27 03:29:59;;;;;;;;;;;15.50;58.40;;;;;;10371321;28;94302;-62
2023/12/27 03:35:02;;;;;;;;;;;15.50;58.70;;;;;;10361175;28;93516;-62
2023/12/27 03:40:04;;;;;;;;;;;15.40;59.20;;;;;;10369289;28;93444;-62
2023/12/27 03:45:06;;;;;;;;;;;15.40;59.50;;;;;;10371026;28;93976;-62
2023/12/27 03:50:08;;;;;;;;;;;15.40;59.30;;;;;;10370995;28;93307;-62
2023/12/27 03:55:10;;;;;;;;;;;15.40;59.00;;;;;;10370453;28;93445;-61
2023/12/27 04:00:12;;;;;;;;;;;15.40;58.80;;;;;;10368983;28;95983;-62
2023/12/27 04:05:14;;;;;;;;;;;15.40;58.50;;;;;;10369705;28;93811;-62
2023/12/27 04:10:16;;;;;;;;;;;15.40;58.40;;;;;;10369240;28;93586;-62
2023/12/27 04:15:18;;;;;;;;;;;15.40;58.20;;;;;;10371388;28;94213;-67
2023/12/27 04:20:20;;;;;;;;;;;15.40;58.20;;;;;;10351359;28;93554;-62
2023/12/27 04:25:21;;;;;;;;;;;15.40;58.10;;;;;;10368058;28;94123;-62
2023/12/27 04:30:23;;;;;;;;;;;15.40;58.40;;;;;;10369008;28;93659;-62
2023/12/27 04:35:25;;;;;;;;;;;15.30;58.90;;;;;;10367411;28;93880;-62
2023/12/27 04:40:28;;;;;;;;;;;15.30;59.30;;;;;;10350893;28;93815;-62
2023/12/27 04:45:29;;;;;;;;;;;15.30;59.40;;;;;;10368303;28;93356;-62
2023/12/27 04:50:31;;;;;;;;;;;15.30;59.50;;;;;;10366445;28;97023;-62
2023/12/27 04:55:33;;;;;;;;;;;15.20;59.50;;;;;;10368344;28;93765;-62
2023/12/27 05:00:35;;;;;;;;;;;15.20;59.60;;;;;;10370525;28;93505;-62
2023/12/27 05:05:36;;;;;;;;;;;15.20;59.70;;;;;;10375931;28;93803;-62
2023/12/27 05:10:38;;;;;;;;;;;15.20;59.80;;;;;;10373921;28;93422;-63
2023/12/27 05:15:40;;;;;;;;;;;15.20;59.90;;;;;;10371471;28;94559;-64
2023/12/27 05:20:42;;;;;;;;;;;15.20;60.10;;;;;;10350494;28;94575;-62
2023/12/27 05:25:44;;;;;;;;;;;15.20;60.40;;;;;;10358399;28;92390;-62
2023/12/27 05:30:45;;;;;;;;;;;15.10;60.30;;;;;;10368345;28;94476;-62
2023/12/27 05:35:47;;;;;;;;;;;15.20;60.60;;;;;;10367172;28;94188;-62
2023/12/27 05:40:49;;;;;;;;;;;15.20;60.60;;;;;;10346767;28;97123;-62
2023/12/27 05:45:51;;;;;;;;;;;15.20;60.50;;;;;;10359817;28;93811;-62
2023/12/27 05:50:53;;;;;;;;;;;15.20;60.50;;;;;;10348666;28;93479;-62
2023/12/27 05:55:54;;;;;;;;;;;15.20;60.50;;;;;;10349075;28;93209;-62
2023/12/27 06:00:56;;;;;;;;;;;15.20;60.60;;;;;;10367562;28;93185;-62
2023/12/27 06:05:59;;;;;;;;;;;15.20;60.60;;;;;;10363096;28;94272;-62
2023/12/27 06:11:01;;;;;;;;;;;15.20;60.80;;;;;;10340376;28;94219;-62
2023/12/27 06:16:03;;;;;;;;;;;15.20;60.80;;;;;;10349956;28;93211;-62
2023/12/27 06:21:05;;;;;;;;;;;15.20;60.90;;;;;;10365993;28;93578;-62
2023/12/27 06:26:07;;;;;;;;;;;15.20;61.00;;;;;;10363572;28;94460;-62
2023/12/27 06:31:09;;;;;;;;;;;15.20;61.00;;;;;;10363247;28;97191;-62
2023/12/27 06:36:11;;;;;;;;;;;15.20;61.10;;;;;;10366079;28;92935;-62
2023/12/27 06:41:13;;;;;;;;;;;15.10;61.10;;;;;;10347558;28;94395;-63
2023/12/27 06:46:15;;;;;;;;;;;15.20;61.30;;;;;;10334492;28;93503;-62
2023/12/27 06:51:17;;;;;;;;;;;15.10;61.40;;;;;;10365491;28;93839;-62
2023/12/27 06:56:18;;;;;;;;;;;15.10;61.40;;;;;;10367638;28;94496;-62
2023/12/27 07:01:20;;;;;;;;;;;15.10;61.50;;;;;;10369891;28;94563;-62
2023/12/27 07:06:22;;;;;;;;;;;15.10;61.40;;;;;;10368388;28;92737;-62
2023/12/27 07:11:25;;;;;;;;;;;15.20;61.50;;;;;;10362861;28;92906;-62
2023/12/27 07:16:26;;;;;;;;;;;15.20;61.40;;;;;;10347442;28;94670;-67
2023/12/27 07:21:30;;;;;;;;;;;15.20;61.40;;;;;;10367439;28;97148;-62
2023/12/27 07:26:31;;;;;;;;;;;15.20;61.40;;;;;;10364189;28;93337;-62
2023/12/27 07:31:33;;;;;;;;;;;15.20;61.40;;;;;;10372888;28;93839;-62
2023/12/27 07:36:35;;;;;;;;;;;15.10;61.40;;;;;;10352581;28;93474;-62
2023/12/27 07:41:37;;;;;;;;;;;15.10;61.50;;;;;;10371925;28;93117;-62
2023/12/27 07:46:38;;;;;;;;;;;15.10;61.60;;;;;;10371143;28;95427;-62
2023/12/27 07:51:40;;;;;;;;;;;15.10;61.70;;;;;;10371379;28;93371;-62
2023/12/27 07:56:42;;;;;;;;;;;15.10;61.70;;;;;;10371580;28;93252;-62
2023/12/27 08:01:45;;;;;;;;;;;15.10;61.70;;;;;;10351909;28;93408;-62
2023/12/27 08:06:48;;;;;;;;;;;15.10;61.70;;;;;;10362586;28;93986;-62
2023/12/27 08:11:51;;;;;;;;;;;15.10;61.90;;;;;;10367725;28;96844;-62
2023/12/27 08:16:53;;;;;;;;;;;15.00;61.90;;;;;;10369989;28;93425;-62
2023/12/27 08:21:55;;;;;;;;;;;15.00;62.00;;;;;;10348667;28;93507;-62
2023/12/27 08:26:56;;;;;;;;;;;15.00;62.00;;;;;;10334691;28;92974;-62
2023/12/27 08:31:58;;;;;;;;;;;15.00;62.00;;;;;;10369702;28;94492;-62
2023/12/27 08:37:00;;;;;;;;;;;15.10;62.10;;;;;;10369028;28;93797;-62
2023/12/27 08:42:02;;;;;;;;;;;15.10;62.10;;;;;;10370256;28;92740;-61
2023/12/27 08:47:04;;;;;;;;;;;15.10;62.10;;;;;;10350204;28;92966;-62
2023/12/27 08:52:05;;;;;;;;;;;15.10;62.10;;;;;;10355225;28;93956;-62
2023/12/27 08:57:07;;;;;;;;;;;15.10;62.10;;;;;;10375588;28;94546;-62
2023/12/27 09:02:09;;;;;;;;;;;15.10;62.10;;;;;;10368878;28;96084;-62
2023/12/27 09:07:11;;;;;;;;;;;15.10;62.10;;;;;;10364103;28;93852;-62
2023/12/27 09:12:12;;;;;;;;;;;15.00;62.10;;;;;;10359147;28;94013;-62
2023/12/27 09:17:15;;;;;;;;;;;15.00;62.20;;;;;;10366901;28;94600;-62
2023/12/27 09:22:17;;;;;;;;;;;15.00;62.20;;;;;;10368157;28;95025;-62
2023/12/27 09:27:19;;;;;;;;;;;15.00;62.30;;;;;;10326939;28;94514;-62
2023/12/27 09:32:21;;;;;;;;;;;15.00;62.40;;;;;;10367045;28;93644;-62
2023/12/27 09:37:23;;;;;;;;;;;15.00;62.40;;;;;;10367970;28;92789;-61
2023/12/27 09:42:25;;;;;;;;;;;15.00;62.40;;;;;;10366887;28;94365;-61
2023/12/27 09:47:28;;;;;;;;;;;14.90;62.50;;;;;;10366168;28;93017;-62
2023/12/27 09:52:30;;;;;;;;;;;14.90;62.50;;;;;;10347032;28;95949;-62
2023/12/27 09:57:31;;;;;;;;;;;14.90;62.50;;;;;;10366216;28;93568;-62
2023/12/27 10:02:34;;;;;;;;;;;14.90;62.50;;;;;;10366282;28;95795;-62
2023/12/27 10:07:39;;;;;;;;;;;15.00;62.70;;;;;;10364136;28;94169;-62
2023/12/27 10:12:41;;;;;;;;;;;15.00;62.70;;;;;;10365672;28;93053;-62
2023/12/27 10:17:43;;;;;;;;;;;15.00;62.60;;;;;;10360757;28;94105;-62
2023/12/27 10:22:45;;;;;;;;;;;15.00;62.60;;;;;;10366930;28;93235;-62
2023/12/27 10:27:46;;;;;;;;;;;15.00;62.60;;;;;;10363968;28;92922;-62
2023/12/27 10:33:01;;;;;;;;;;;15.00;62.60;;;;;;10365324;28;93529;-62
2023/12/27 10:38:04;;;;;;;;;;;15.00;62.60;;;;;;10353764;28;94615;-62
2023/12/27 10:43:08;;;;;;;;;;;15.00;62.60;;;;;;10338488;28;95854;-62
2023/12/27 10:48:11;;;;;;;;;;;15.00;62.60;;;;;;10368428;28;94617;-62
2023/12/27 10:53:15;;;;;;;;;;;15.00;62.80;;;;;;10355066;28;94583;-63
2023/12/27 10:58:19;;;;;;;;;;;15.00;62.80;;;;;;10376906;28;92834;-62
2023/12/27 11:03:22;;;;;;;;;;;15.00;62.80;;;;;;10373675;28;93443;-62
2023/12/27 11:08:24;;;;;;;;;;;15.00;62.80;;;;;;10353796;28;94397;-62
2023/12/27 11:13:27;;;;;;;;;;;15.00;62.90;;;;;;10353002;28;94464;-61
2023/12/27 11:18:30;;;;;;;;;;;14.90;62.90;;;;;;10371062;28;92670;-62
2023/12/27 11:23:32;;;;;;;;;;;14.90;63.00;;;;;;10346058;28;93467;-62
2023/12/27 11:28:34;;;;;;;;;;;14.90;63.00;;;;;;10369264;28;94688;-61
2023/12/27 11:33:36;;;;;;;;;;;15.00;63.10;;;;;;10369699;28;97053;-61
2023/12/27 11:38:39;;;;;;;;;;;15.00;63.00;;;;;;10369774;28;93761;-62
2023/12/27 11:43:51;;;;;;;;;;;15.00;63.00;;;;;;10370941;28;93870;-62
2023/12/27 11:48:54;;;;;;;;;;;15.00;62.90;;;;;;10369874;28;93415;-62
2023/12/27 11:53:56;;;;;;;;;;;15.00;63.00;;;;;;10371085;28;93459;-62
2023/12/27 11:58:58;;;;;;;;;;;15.00;63.00;;;;;;10371207;28;93813;-62
2023/12/27 12:04:06;;;;;;;;;;;15.00;63.00;;;;;;10351936;28;94806;-62
2023/12/27 12:09:09;;;;;;;;;;;15.00;63.10;;;;;;10369296;28;93761;-62
2023/12/27 12:14:10;;;;;;;;;;;15.00;63.10;;;;;;10369986;28;93549;-62
2023/12/27 12:19:15;;;;;;;;;;;14.90;63.10;;;;;;10368638;28;93390;-62
2023/12/27 12:24:20;;;;;;;;;;;14.90;63.20;;;;;;10368241;28;96825;-62
2023/12/27 12:29:21;;;;;;;;;;;14.90;63.30;;;;;;10364527;28;94060;-62
2023/12/27 12:34:23;;;;;;;;;;;14.90;63.30;;;;;;10369557;28;94485;-62
2023/12/27 12:39:27;;;;;;;;;;;14.90;63.40;;;;;;10369984;28;93351;-62
2023/12/27 12:44:32;;;;;;;;;;;14.90;63.40;;;;;;10372241;28;93653;-62
2023/12/27 12:49:34;;;;;;;;;;;14.90;63.50;;;;;;10371472;28;93477;-62
2023/12/27 12:54:36;;;;;;;;;;;14.90;63.60;;;;;;10372747;28;95365;-62
2023/12/27 12:59:40;;;;;;;;;;;14.90;63.70;;;;;;10371973;28;92477;-61
2023/12/27 13:04:42;;;;;;;;;;;14.80;63.60;;;;;;10369559;28;93644;-63
2023/12/27 13:10:00;;;;;;;;;;;14.90;63.70;;;;;;10363544;28;94444;-62
2023/12/27 13:15:03;;;;;;;;;;;14.90;63.70;;;;;;10366974;28;96815;-62
2023/12/27 13:20:05;;;;;;;;;;;14.90;63.70;;;;;;10365416;28;95300;-62
2023/12/27 13:25:09;;;;;;;;;;;14.90;63.60;;;;;;10349906;28;95598;-62
2023/12/27 13:30:12;;;;;;;;;;;14.90;63.50;;;;;;10368057;28;93789;-62
2023/12/27 13:35:14;;;;;;;;;;;14.90;63.50;;;;;;10367984;28;93149;-62
2023/12/27 13:40:15;;;;;;;;;;;14.90;63.60;;;;;;10345993;28;93854;-62
2023/12/27 13:45:17;;;;;;;;;;;14.90;63.70;;;;;;10349333;28;93435;-62
2023/12/27 13:50:19;;;;;;;;;;;14.90;63.70;;;;;;10349754;28;92934;-62
2023/12/27 13:55:21;;;;;;;;;;;14.80;63.80;;;;;;10366787;28;94499;-62
2023/12/27 14:00:24;;;;;;;;;;;14.80;63.80;;;;;;10365863;28;93652;-63
2023/12/27 14:05:25;;;;;;;;;;;14.80;63.90;;;;;;10364712;28;96925;-62
2023/12/27 14:10:28;;;;;;;;;;;14.90;64.00;;;;;;10358925;28;94279;-63
2023/12/27 14:15:30;;;;;;;;;;;14.80;64.00;;;;;;10332063;28;94548;-62
2023/12/27 14:20:32;;;;;;;;;;;14.80;64.00;;;;;;10347234;28;92667;-62
2023/12/27 14:25:35;;;;;;;;;;;14.80;64.10;;;;;;10347409;28;93498;-62
2023/12/27 14:30:37;;;;;;;;;;;14.80;64.10;;;;;;10369951;28;94538;-62
2023/12/27 14:35:39;;;;;;;;;;;14.80;64.20;;;;;;10370306;28;94421;-62
2023/12/27 14:40:40;;;;;;;;;;;14.80;64.20;;;;;;10374905;28;91846;-62
2023/12/27 14:45:42;;;;;;;;;;;14.80;64.20;;;;;;10378310;28;93848;-62
2023/12/27 14:50:44;;;;;;;;;;;14.90;64.20;;;;;;10378286;28;93594;-62
2023/12/27 14:55:45;;;;;;;;;;;14.90;64.10;;;;;;10373017;28;96559;-61
2023/12/27 15:00:50;;;;;;;;;;;14.90;64.10;;;;;;10369149;28;93390;-63
2023/12/27 15:05:52;;;;;;;;;;;14.90;64.10;;;;;;10371795;28;93251;-62
2023/12/27 15:10:54;;;;;;;;;;;14.90;64.10;;;;;;10346742;28;93805;-61
2023/12/27 15:15:56;;;;;;;;;;;14.90;64.10;;;;;;10372221;28;94689;-61
2023/12/27 15:20:58;;;;;;;;;;;14.90;64.20;;;;;;10373060;28;94591;-61
2023/12/27 15:26:00;;;;;;;;;;;14.80;64.10;;;;;;10353105;28;93449;-61
2023/12/27 15:31:02;;;;;;;;;;;14.90;64.20;;;;;;10372265;28;93703;-62
2023/12/27 15:36:04;;;;;;;;;;;14.90;64.20;;;;;;10372512;28;94179;-61
2023/12/27 15:41:15;;;;;;;;;;;14.80;64.20;;;;;;10343490;28;94134;-61
2023/12/27 15:46:17;;;;;;;;;;;14.80;64.20;;;;;;10368436;28;96841;-61
2023/12/27 15:51:23;;;;;;;;;;;14.80;64.30;;;;;;10352008;28;94619;-61
2023/12/27 15:56:29;;;;;;;;;;;14.80;64.40;;;;;;10372114;28;94849;-61
2023/12/27 16:01:31;;;;;;;;;;;14.80;64.30;;;;;;10370981;28;93988;-62
2023/12/27 16:06:35;;;;;;;;;;;14.80;64.30;;;;;;10352140;28;94996;-62
2023/12/27 16:11:40;;;;;;;;;;;14.80;64.30;;;;;;10369854;28;95303;-62
2023/12/27 16:16:42;;;;;;;;;;;14.80;64.30;;;;;;10368150;28;94260;-62
2023/12/27 16:21:44;;;;;;;;;;;14.80;64.30;;;;;;10370458;28;94123;-62
2023/12/27 16:26:46;;;;;;;;;;;14.90;64.20;;;;;;10356735;28;92820;-62
2023/12/27 16:31:48;;;;;;;;;;;14.90;64.20;;;;;;10370840;28;94265;-62
2023/12/27 16:36:52;;;;;;;;;;;14.90;64.20;;;;;;10368813;28;95897;-62
2023/12/27 16:41:54;;;;;;;;;;;14.90;64.20;;;;;;10373515;28;94345;-62
2023/12/27 16:46:56;;;;;;;;;;;14.90;64.20;;;;;;10378192;28;94393;-62
2023/12/27 16:51:57;;;;;;;;;;;14.80;64.20;;;;;;10370937;28;93832;-62
2023/12/27 16:56:59;;;;;;;;;;;14.80;64.20;;;;;;10335467;28;93377;-62
2023/12/27 17:02:01;;;;;;;;;;;14.80;64.30;;;;;;10368750;28;94376;-62
2023/12/27 17:07:03;;;;;;;;;;;14.80;64.30;;;;;;10364164;28;94472;-62
2023/12/27 17:12:05;;;;;;;;;;;14.80;64.30;;;;;;10362644;28;93027;-62
2023/12/27 17:17:07;;;;;;;;;;;14.80;64.30;;;;;;10350106;28;94214;-62
2023/12/27 17:22:11;;;;;;;;;;;14.80;64.40;;;;;;10367831;28;93450;-62
2023/12/27 17:27:14;;;;;;;;;;;14.80;64.30;;;;;;10361292;28;96413;-62
2023/12/27 17:32:16;;;;;;;;;;;14.80;64.40;;;;;;10368424;28;93317;-62
2023/12/27 17:37:18;;;;;;;;;;;14.70;64.40;;;;;;10348840;28;94754;-62
2023/12/27 17:42:20;;;;;;;;;;;14.70;64.40;;;;;;10365690;28;93711;-62
2023/12/27 17:47:22;;;;;;;;;;;14.80;64.50;;;;;;10345663;28;93741;-63
2023/12/27 17:52:26;;;;;;;;;;;14.80;64.40;;;;;;10349736;28;94358;-62
2023/12/27 17:57:32;;;;;;;;;;;14.80;64.40;;;;;;10367116;28;94218;-63
2023/12/27 18:02:34;;;;;;;;;;;14.80;64.40;;;;;;10366104;28;93644;-62
2023/12/27 18:07:37;;;;;;;;;;;14.80;64.30;;;;;;10364555;28;93538;-62
2023/12/27 18:12:41;;;;;;;;;;;14.80;64.40;;;;;;10359683;28;113351;-62
2023/12/27 18:17:42;;;;;;;;;;;14.80;64.40;;;;;;10364676;28;97049;-62
2023/12/27 18:22:44;;;;;;;;;;;14.80;64.30;;;;;;10366591;28;93314;-62
2023/12/27 18:27:48;;;;;;;;;;;14.70;64.20;;;;;;10360485;28;94416;-62
2023/12/27 18:32:50;;;;;;;;;;;14.70;64.40;;;;;;10354504;28;93437;-62
2023/12/27 18:37:52;;;;;;;;;;;14.70;64.40;;;;;;10370204;28;95070;-62
2023/12/27 18:42:54;;;;;;;;;;;14.70;65.40;;;;;;10381030;28;94678;-62
2023/12/27 18:47:56;;;;;;;;;;;14.70;64.30;;;;;;10372421;28;93474;-62
2023/12/27 18:52:58;;;;;;;;;;;14.70;64.40;;;;;;10368483;28;93797;-62
2023/12/27 18:58:04;;;;;;;;;;;14.70;64.40;;;;;;10347784;28;93917;-62
2023/12/27 19:03:06;;;;;;;;;;;14.70;64.40;;;;;;10364853;28;94435;-62
2023/12/27 19:08:08;;;;;;;;;;;14.70;64.60;;;;;;10361973;28;95902;-62
2023/12/27 19:13:09;;;;;;;;;;;14.70;64.50;;;;;;10361368;28;93727;-62
2023/12/27 19:18:11;;;;;;;;;;;14.70;64.50;;;;;;10370673;28;93744;-62
2023/12/27 19:23:13;;;;;;;;;;;14.80;64.40;;;;;;10363186;28;93741;-62
2023/12/27 19:28:15;;;;;;;;;;;14.70;64.20;;;;;;10366952;28;94748;-62
2023/12/27 19:33:17;;;;;;;;;;;14.80;64.20;;;;;;10372503;28;94504;-62
2023/12/27 19:38:19;;;;;;;;;;;14.80;64.20;;;;;;10352982;28;94463;-61
2023/12/27 19:43:21;;;;;;;;;;;14.80;64.10;;;;;;10371556;28;92977;-61
2023/12/27 19:48:24;;;;;;;;;;;14.80;64.10;;;;;;10370609;28;93445;-62
2023/12/27 19:53:26;;;;;;;;;;;14.80;63.90;;;;;;10369747;28;94530;-62
2023/12/27 19:58:28;;;;;;;;;;;14.80;64.00;;;;;;10349641;28;96236;-62
2023/12/27 20:03:30;;;;;;;;;;;14.80;64.10;;;;;;10352259;28;93406;-62
2023/12/27 20:08:33;;;;;;;;;;;14.80;64.00;;;;;;10371492;28;94056;-63
2023/12/27 20:13:34;;;;;;;;;;;14.70;63.80;;;;;;10369985;28;93434;-62
2023/12/27 20:18:36;;;;;;;;;;;14.70;63.80;;;;;;10352429;28;94316;-62
2023/12/27 20:23:40;;;;;;;;;;;14.70;63.80;;;;;;10351530;28;94487;-62
2023/12/27 20:28:42;;;;;;;;;;;14.70;63.90;;;;;;10365719;28;93857;-62
2023/12/27 20:33:43;;;;;;;;;;;14.70;63.90;;;;;;10353841;28;94059;-62
2023/12/27 20:38:45;;;;;;;;;;;14.70;64.20;;;;;;10373182;28;93560;-62
2023/12/27 20:43:47;;;;;;;;;;;14.70;64.20;;;;;;10376014;28;93451;-62
2023/12/27 20:48:50;;;;;;;;;;;14.70;64.20;;;;;;10369146;28;98153;-63
2023/12/27 20:53:52;;;;;;;;;;;14.80;64.20;;;;;;10367803;28;94395;-62
2023/12/27 20:58:55;;;;;;;;;;;14.80;64.10;;;;;;10368355;28;94806;-62
2023/12/27 21:03:57;;;;;;;;;;;14.80;64.20;;;;;;10367913;28;93521;-62
2023/12/27 21:08:59;;;;;;;;;;;14.70;64.00;;;;;;10367963;28;94442;-61
2023/12/27 21:14:01;;;;;;;;;;;14.70;64.00;;;;;;10368251;28;93483;-63
2023/12/27 21:19:03;;;;;;;;;;;14.70;64.20;;;;;;10350486;28;94554;-62
2023/12/27 21:24:05;;;;;;;;;;;14.70;64.10;;;;;;10368496;28;93659;-62
2023/12/27 21:29:07;;;;;;;;;;;14.70;64.10;;;;;;10365890;28;94074;-62
2023/12/27 21:34:09;;;;;;;;;;;14.70;64.20;;;;;;10367224;28;94058;-62
2023/12/27 21:39:11;;;;;;;;;;;14.70;64.20;;;;;;10345011;28;96435;-62
2023/12/27 21:44:12;;;;;;;;;;;14.70;64.20;;;;;;10367053;28;94438;-62
2023/12/27 21:49:14;;;;;;;;;;;14.60;64.10;;;;;;10366948;28;93589;-62
2023/12/27 21:54:16;;;;;;;;;;;14.60;64.20;;;;;;10367068;28;93362;-62
2023/12/27 21:59:18;;;;;;;;;;;14.70;64.30;;;;;;10347721;28;93476;-66
2023/12/27 22:04:20;;;;;;;;;;;14.60;64.30;;;;;;10365927;28;93691;-62
2023/12/27 22:09:22;;;;;;;;;;;14.60;64.40;;;;;;10365643;28;94411;-61
2023/12/27 22:14:23;;;;;;;;;;;14.60;64.50;;;;;;10362039;28;92895;-62
2023/12/27 22:19:25;;;;;;;;;;;14.60;64.40;;;;;;10354605;28;93453;-62
2023/12/27 22:24:27;;;;;;;;;;;14.70;64.40;;;;;;10363590;28;95142;-62
2023/12/27 22:29:29;;;;;;;;;;;14.70;64.40;;;;;;10360730;28;97365;-62
2023/12/27 22:34:31;;;;;;;;;;;14.70;64.30;;;;;;10370937;28;94705;-63
2023/12/27 22:39:33;;;;;;;;;;;14.70;64.30;;;;;;10374058;28;94837;-63
2023/12/27 22:44:35;;;;;;;;;;;14.70;64.40;;;;;;10366029;28;94946;-63
2023/12/27 22:49:36;;;;;;;;;;;14.60;64.30;;;;;;10366990;28;94912;-63
2023/12/27 22:54:38;;;;;;;;;;;14.60;64.40;;;;;;10373187;28;93537;-61
2023/12/27 22:59:40;;;;;;;;;;;14.60;64.40;;;;;;10348702;28;93321;-62
2023/12/27 23:04:42;;;;;;;;;;;14.60;64.40;;;;;;10346832;28;92664;-62
2023/12/27 23:09:44;;;;;;;;;;;14.60;64.40;;;;;;10374602;28;94429;-62
2023/12/27 23:14:46;;;;;;;;;;;14.60;64.30;;;;;;10373381;28;94468;-62
2023/12/27 23:19:48;;;;;;;;;;;14.70;64.00;;;;;;10369650;28;96923;-61
2023/12/27 23:24:50;;;;;;;;;;;14.60;63.40;;;;;;10353347;28;94598;-61
2023/12/27 23:29:52;;;;;;;;;;;14.60;63.10;;;;;;10368182;28;94532;-62
2023/12/27 23:34:55;;;;;;;;;;;14.70;62.80;;;;;;10354316;28;94419;-62
2023/12/27 23:39:57;;;;;;;;;;;14.70;62.60;;;;;;10371970;28;94346;-62
2023/12/27 23:44:58;;;;;;;;;;;14.70;62.20;;;;;;10371797;28;94702;-62
2023/12/27 23:50:00;;;;;;;;;;;14.70;62.00;;;;;;10368853;28;93438;-62
2023/12/27 23:55:02;;;;;;;;;;;14.70;61.80;;;;;;10370936;28;92896;-62
